Mekinock, North Dakota
Current Conditions -  °F | °C
As of 8:03 PM on Thursday 18 Dec 2014 (Local Time) from KRDR Reporting Station
Overcast Overcast  
Wind Chill:   Ceiling: 1100
Heat Index: 19°   Visibility: 10mi
Dew Point: 19°   Wind: 8mph
Humidity: 100%   Direction: 190°S
Pressure: 30.15"   Gusts: NA
Location:  48.01°N, 97.37°W
Report Text: KRDR 190203Z AUTO 19007KT 10SM OVC011 M07/M07 A3015 RMK AO2
Loading
Personal Weather Stations






























Interactive Weather Map New forecast layout! Learn more

10-Day Weather Forecast

Advertisements
Track Severe Weather on mobile